Time,TemperatureF,DewpointF,PressureIn,WindDirection,WindDirectionDegrees,WindSpeedMPH,WindSpeedGustMPH,Humidity,HourlyPrecipIn,Conditions,Clouds,dailyrainin,SoftwareType,DateUTC
2013-06-07 00:00:00,67.6,65.8,29.73,NNE,32,0.0,0.0,94,0.00,,,0.00,Wunderground v.1.15,2013-06-07 04:00:00,
2013-06-07 00:05:00,67.6,65.8,29.73,NNE,32,0.0,0.0,94,0.00,,,0.00,Wunderground v.1.15,2013-06-07 04:05:00,
2013-06-07 00:10:00,67.6,65.8,29.73,NNE,32,0.0,0.0,94,0.00,,,0.00,Wunderground v.1.15,2013-06-07 04:10:00,
2013-06-07 00:15:00,67.4,65.6,29.73,NNE,32,0.0,0.0,94,0.00,,,0.00,Wunderground v.1.15,2013-06-07 04:15:00,
2013-06-07 00:20:00,67.4,65.6,29.73,NNE,32,0.0,0.0,94,0.00,,,0.00,Wunderground v.1.15,2013-06-07 04:20:00,
2013-06-07 00:30:00,67.3,65.8,29.73,NNE,32,0.0,0.0,95,0.00,,,0.00,Wunderground v.1.15,2013-06-07 04:30:00,
2013-06-07 00:40:00,67.3,65.8,29.73,NNE,32,0.0,0.0,95,0.00,,,0.00,Wunderground v.1.15,2013-06-07 04:40:00,
2013-06-07 00:50:00,67.1,65.3,29.73,NNE,32,0.0,0.0,94,0.00,,,0.00,Wunderground v.1.15,2013-06-07 04:50:00,
2013-06-07 01:00:00,67.1,65.3,29.73,NNE,32,0.0,0.0,94,0.00,,,0.00,Wunderground v.1.15,2013-06-07 05:00:00,
2013-06-07 01:05:00,67.1,65.3,29.73,NNE,32,0.0,0.0,94,0.00,,,0.00,Wunderground v.1.15,2013-06-07 05:05:00,
2013-06-07 01:10:00,67.1,65.3,29.73,NNE,32,0.0,0.0,94,0.00,,,0.00,Wunderground v.1.15,2013-06-07 05:10:00,
2013-06-07 01:20:00,66.9,65.1,29.72,NNE,32,0.0,0.0,94,0.00,,,0.00,Wunderground v.1.15,2013-06-07 05:20:00,
2013-06-07 01:25:00,66.9,65.1,29.72,NNE,32,0.0,0.0,94,0.00,,,0.00,Wunderground v.1.15,2013-06-07 05:25:00,
2013-06-07 01:30:00,66.8,65.3,29.72,NNE,32,0.0,0.0,95,0.00,,,0.00,Wunderground v.1.15,2013-06-07 05:30:00,
2013-06-07 01:40:00,66.8,65.3,29.72,NNE,32,0.0,0.0,95,0.00,,,0.00,Wunderground v.1.15,2013-06-07 05:40:00,
2013-06-07 01:45:00,66.6,65.1,29.71,NNE,32,0.0,0.0,95,0.00,,,0.00,Wunderground v.1.15,2013-06-07 05:45:00,
2013-06-07 01:50:00,66.4,64.9,29.71,NNE,32,0.0,0.0,95,0.00,,,0.00,Wunderground v.1.15,2013-06-07 05:50:00,
2013-06-07 02:00:00,66.3,64.8,29.71,NNE,32,0.0,0.0,95,0.00,,,0.00,Wunderground v.1.15,2013-06-07 06:00:00,
2013-06-07 02:10:00,66.3,65.1,29.71,NNE,32,0.0,0.0,96,0.00,,,0.00,Wunderground v.1.15,2013-06-07 06:10:00,
2013-06-07 02:20:00,66.0,64.8,29.70,NNE,32,0.0,0.0,96,0.00,,,0.00,Wunderground v.1.15,2013-06-07 06:20:00,
2013-06-07 02:25:00,66.0,64.8,29.70,NNE,32,0.0,0.0,96,0.00,,,0.00,Wunderground v.1.15,2013-06-07 06:25:00,
2013-06-07 02:35:00,65.8,64.6,29.70,NNE,32,0.0,0.0,96,0.00,,,0.00,Wunderground v.1.15,2013-06-07 06:35:00,
2013-06-07 02:40:00,65.8,64.6,29.69,NNE,32,0.0,0.0,96,0.00,,,0.00,Wunderground v.1.15,2013-06-07 06:40:00,
2013-06-07 02:50:00,65.8,64.9,29.69,NNE,32,0.0,0.0,97,0.00,,,0.00,Wunderground v.1.15,2013-06-07 06:50:00,
2013-06-07 02:55:00,65.8,64.9,29.69,NNE,32,0.0,0.0,97,0.00,,,0.00,Wunderground v.1.15,2013-06-07 06:55:00,
2013-06-07 03:00:00,65.6,64.7,29.68,NNE,32,0.0,0.0,97,0.00,,,0.00,Wunderground v.1.15,2013-06-07 07:00:00,
2013-06-07 03:10:00,65.5,64.6,29.68,NNE,32,0.0,0.0,97,0.00,,,0.00,Wunderground v.1.15,2013-06-07 07:10:00,
2013-06-07 03:15:00,65.5,64.6,29.68,NNE,32,0.0,0.0,97,0.00,,,0.00,Wunderground v.1.15,2013-06-07 07:15:00,
2013-06-07 03:25:00,65.5,64.6,29.68,NNE,32,0.0,0.0,97,0.00,,,0.00,Wunderground v.1.15,2013-06-07 07:25:00,
2013-06-07 03:30:00,65.5,64.6,29.68,NNE,32,0.0,0.0,97,0.00,,,0.00,Wunderground v.1.15,2013-06-07 07:30:00,
2013-06-07 03:40:00,65.3,64.4,29.68,NNE,32,0.0,0.0,97,0.00,,,0.00,Wunderground v.1.15,2013-06-07 07:40:00,
2013-06-07 03:50:00,65.2,64.3,29.67,NNE,32,0.0,0.0,97,0.00,,,0.00,Wunderground v.1.15,2013-06-07 07:50:00,
2013-06-07 04:00:00,65.0,64.1,29.67,NNE,32,0.0,0.0,97,0.00,,,0.00,Wunderground v.1.15,2013-06-07 08:00:00,
2013-06-07 04:05:00,65.0,64.1,29.67,NNE,32,0.0,0.0,97,0.00,,,0.00,Wunderground v.1.15,2013-06-07 08:05:00,
2013-06-07 04:10:00,64.8,63.9,29.67,NNE,32,0.0,0.0,97,0.00,,,0.00,Wunderground v.1.15,2013-06-07 08:10:00,
2013-06-07 04:15:00,64.7,63.8,29.67,NNE,32,0.0,0.0,97,0.00,,,0.00,Wunderground v.1.15,2013-06-07 08:15:00,
2013-06-07 04:25:00,64.7,64.1,29.67,NNE,32,0.0,0.0,98,0.00,,,0.00,Wunderground v.1.15,2013-06-07 08:25:00,
2013-06-07 04:30:00,64.5,63.9,29.67,NNE,32,0.0,0.0,98,0.00,,,0.01,Wunderground v.1.15,2013-06-07 08:30:00,
2013-06-07 04:35:00,64.5,63.9,29.67,NNE,32,0.0,0.0,98,0.00,,,0.01,Wunderground v.1.15,2013-06-07 08:35:00,
2013-06-07 04:45:00,64.5,63.9,29.66,NNE,32,0.0,0.0,98,0.00,,,0.01,Wunderground v.1.15,2013-06-07 08:45:00,
2013-06-07 04:55:00,64.5,63.9,29.66,NNE,32,0.0,0.0,98,0.00,,,0.01,Wunderground v.1.15,2013-06-07 08:55:00,
2013-06-07 05:00:00,64.5,63.9,29.66,NNE,32,0.0,0.0,98,0.00,,,0.01,Wunderground v.1.15,2013-06-07 09:00:00,
2013-06-07 05:05:00,64.5,63.9,29.66,NNE,32,0.0,0.0,98,0.00,,,0.01,Wunderground v.1.15,2013-06-07 09:05:00,
2013-06-07 05:10:00,64.5,63.9,29.66,NNE,32,0.0,0.0,98,0.00,,,0.01,Wunderground v.1.15,2013-06-07 09:10:00,
2013-06-07 05:20:00,64.3,63.7,29.66,NNE,32,0.0,0.0,98,0.00,,,0.01,Wunderground v.1.15,2013-06-07 09:20:00,
2013-06-07 05:30:00,64.3,63.7,29.66,NNE,32,0.0,0.0,98,0.00,,,0.01,Wunderground v.1.15,2013-06-07 09:30:00,
2013-06-07 05:40:00,64.3,63.7,29.66,NNE,32,0.0,0.0,98,0.00,,,0.01,Wunderground v.1.15,2013-06-07 09:40:00,
2013-06-07 05:50:00,64.3,63.7,29.66,NNE,32,0.0,0.0,98,0.00,,,0.02,Wunderground v.1.15,2013-06-07 09:50:00,
2013-06-07 05:55:00,64.2,63.6,29.66,NNE,32,0.0,0.0,98,0.00,,,0.02,Wunderground v.1.15,2013-06-07 09:55:00,
2013-06-07 06:00:00,64.2,63.6,29.66,NNE,32,0.0,0.0,98,0.00,,,0.02,Wunderground v.1.15,2013-06-07 10:00:00,
2013-06-07 06:10:00,64.2,63.9,29.66,NNE,32,0.0,0.0,99,0.00,,,0.02,Wunderground v.1.15,2013-06-07 10:10:00,
2013-06-07 06:20:00,64.0,63.7,29.66,NNE,32,0.0,0.0,99,0.00,,,0.02,Wunderground v.1.15,2013-06-07 10:20:00,
2013-06-07 06:30:00,64.0,63.7,29.66,NNE,32,0.0,0.0,99,0.00,,,0.03,Wunderground v.1.15,2013-06-07 10:30:00,
2013-06-07 06:40:00,64.0,63.7,29.66,NNE,32,0.0,0.0,99,0.00,,,0.03,Wunderground v.1.15,2013-06-07 10:40:00,
2013-06-07 06:50:00,64.2,63.9,29.66,NNE,32,0.0,0.0,99,0.00,,,0.03,Wunderground v.1.15,2013-06-07 10:50:00,
2013-06-07 07:00:00,64.2,63.9,29.66,NNE,32,0.0,0.0,99,0.00,,,0.03,Wunderground v.1.15,2013-06-07 11:00:00,
2013-06-07 07:10:00,64.3,64.0,29.66,NNE,32,0.0,0.0,99,0.00,,,0.03,Wunderground v.1.15,2013-06-07 11:10:00,
2013-06-07 07:20:00,64.5,64.2,29.66,NNW,343,0.0,0.0,99,0.00,,,0.03,Wunderground v.1.15,2013-06-07 11:20:00,
2013-06-07 07:30:00,64.7,64.4,29.66,NNW,343,0.0,0.0,99,0.00,,,0.03,Wunderground v.1.15,2013-06-07 11:30:00,
2013-06-07 07:40:00,64.8,64.5,29.66,NNW,343,0.0,0.0,99,0.00,,,0.04,Wunderground v.1.15,2013-06-07 11:40:00,
2013-06-07 07:50:00,64.8,64.5,29.66,NNW,343,0.0,0.0,99,0.00,,,0.04,Wunderground v.1.15,2013-06-07 11:50:00,
2013-06-07 08:00:00,65.0,64.7,29.66,NNW,343,0.0,0.0,99,0.00,,,0.04,Wunderground v.1.15,2013-06-07 12:00:00,
2013-06-07 08:10:00,65.2,64.9,29.66,NNW,343,0.0,0.0,99,0.00,,,0.04,Wunderground v.1.15,2013-06-07 12:10:00,
2013-06-07 08:20:00,65.3,65.0,29.66,NNW,343,0.0,0.0,99,0.00,,,0.05,Wunderground v.1.15,2013-06-07 12:20:00,
2013-06-07 08:30:00,65.3,65.0,29.66,NNW,343,0.0,0.0,99,0.00,,,0.05,Wunderground v.1.15,2013-06-07 12:30:00,
2013-06-07 08:35:00,65.5,65.2,29.66,NNW,343,0.0,0.0,99,0.00,,,0.05,Wunderground v.1.15,2013-06-07 12:35:00,
2013-06-07 08:40:00,65.5,65.2,29.66,NNW,343,0.0,0.0,99,0.00,,,0.05,Wunderground v.1.15,2013-06-07 12:40:00,
2013-06-07 08:45:00,65.6,65.3,29.66,NNW,343,0.0,0.0,99,0.00,,,0.05,Wunderground v.1.15,2013-06-07 12:45:00,
2013-06-07 08:55:00,65.8,65.5,29.66,NNW,343,0.0,0.0,99,0.00,,,0.05,Wunderground v.1.15,2013-06-07 12:55:00,
2013-06-07 09:00:00,65.8,65.2,29.66,NNW,343,0.0,0.0,98,0.00,,,0.05,Wunderground v.1.15,2013-06-07 13:00:00,
2013-06-07 09:05:00,66.0,65.4,29.66,NNW,343,0.0,0.0,98,0.00,,,0.05,Wunderground v.1.15,2013-06-07 13:05:00,
2013-06-07 09:10:00,66.0,65.4,29.66,NNW,343,0.0,0.0,98,0.00,,,0.05,Wunderground v.1.15,2013-06-07 13:10:00,
2013-06-07 09:20:00,66.1,65.5,29.66,NNW,343,0.0,0.0,98,0.00,,,0.06,Wunderground v.1.15,2013-06-07 13:20:00,
2013-06-07 09:30:00,66.3,65.4,29.66,NNW,343,0.0,0.0,97,0.00,,,0.06,Wunderground v.1.15,2013-06-07 13:30:00,
2013-06-07 09:40:00,66.3,65.4,29.66,NNW,343,0.0,0.0,97,0.00,,,0.06,Wunderground v.1.15,2013-06-07 13:40:00,
2013-06-07 09:50:00,66.4,65.5,29.65,NNW,343,0.0,0.0,97,0.00,,,0.07,Wunderground v.1.15,2013-06-07 13:50:00,
2013-06-07 10:00:00,66.6,65.7,29.66,NNW,343,0.0,0.0,97,0.00,,,0.07,Wunderground v.1.15,2013-06-07 14:00:00,
2013-06-07 10:10:00,66.6,65.7,29.65,NNW,343,0.0,0.0,97,0.00,,,0.08,Wunderground v.1.15,2013-06-07 14:10:00,
2013-06-07 10:20:00,66.9,66.0,29.65,NNW,343,0.0,0.0,97,0.06,,,0.09,Wunderground v.1.15,2013-06-07 14:20:00,
2013-06-07 10:25:00,67.1,66.2,29.65,NNW,343,0.0,0.0,97,0.05,,,0.09,Wunderground v.1.15,2013-06-07 14:25:00,
2013-06-07 10:30:00,67.3,66.4,29.65,NNW,343,0.0,0.0,97,0.04,,,0.10,Wunderground v.1.15,2013-06-07 14:30:00,
2013-06-07 10:35:00,67.4,66.2,29.65,NNW,343,0.0,0.0,96,0.04,,,0.10,Wunderground v.1.15,2013-06-07 14:35:00,
2013-06-07 10:40:00,67.3,66.1,29.65,NNW,343,0.0,0.0,96,0.04,,,0.10,Wunderground v.1.15,2013-06-07 14:40:00,
2013-06-07 10:45:00,67.3,66.1,29.65,NNW,343,0.0,0.0,96,0.00,,,0.10,Wunderground v.1.15,2013-06-07 14:45:00,
2013-06-07 10:55:00,67.3,65.8,29.65,WNW,290,0.0,0.0,95,0.00,,,0.10,Wunderground v.1.15,2013-06-07 14:55:00,
2013-06-07 11:00:00,67.3,65.8,29.65,West,281,0.0,0.0,95,0.00,,,0.10,Wunderground v.1.15,2013-06-07 15:00:00,
2013-06-07 11:10:00,67.6,66.1,29.65,West,280,0.0,0.0,95,0.00,,,0.10,Wunderground v.1.15,2013-06-07 15:10:00,
2013-06-07 11:20:00,67.8,65.7,29.66,West,280,0.0,0.0,93,0.00,,,0.10,Wunderground v.1.15,2013-06-07 15:20:00,
2013-06-07 11:30:00,68.1,66.0,29.66,West,281,0.0,0.0,93,0.00,,,0.10,Wunderground v.1.15,2013-06-07 15:30:00,
2013-06-07 11:40:00,68.4,65.7,29.66,West,275,0.0,0.0,91,0.00,,,0.10,Wunderground v.1.15,2013-06-07 15:40:00,
2013-06-07 11:50:00,68.4,65.4,29.66,SW,229,1.0,2.0,90,0.00,,,0.10,Wunderground v.1.15,2013-06-07 15:50:00,
2013-06-07 11:55:00,68.6,65.9,29.66,SW,228,1.0,2.0,91,0.00,,,0.10,Wunderground v.1.15,2013-06-07 15:55:00,
2013-06-07 12:00:00,68.6,65.9,29.66,SW,228,1.0,1.0,91,0.00,,,0.10,Wunderground v.1.15,2013-06-07 16:00:00,
2013-06-07 12:05:00,68.6,65.9,29.66,SW,224,1.0,1.0,91,0.00,,,0.10,Wunderground v.1.15,2013-06-07 16:05:00,
2013-06-07 12:10:00,68.6,65.5,29.66,WSW,240,1.0,2.0,90,0.00,,,0.10,Wunderground v.1.15,2013-06-07 16:10:00,
2013-06-07 12:20:00,68.8,66.1,29.66,SW,236,1.0,1.0,91,0.00,,,0.10,Wunderground v.1.15,2013-06-07 16:20:00,
2013-06-07 12:25:00,68.9,65.8,29.66,WSW,237,1.0,1.0,90,0.00,,,0.10,Wunderground v.1.15,2013-06-07 16:25:00,
2013-06-07 12:30:00,69.1,65.7,29.66,SW,222,0.0,3.0,89,0.00,,,0.10,Wunderground v.1.15,2013-06-07 16:30:00,
2013-06-07 12:40:00,69.4,66.0,29.66,SW,220,2.0,2.0,89,0.00,,,0.10,Wunderground v.1.15,2013-06-07 16:40:00,
2013-06-07 12:45:00,69.3,65.9,29.66,SSW,210,2.0,3.0,89,0.00,,,0.10,Wunderground v.1.15,2013-06-07 16:45:00,
2013-06-07 12:50:00,69.1,65.4,29.66,SSW,212,2.0,3.0,88,0.00,,,0.10,Wunderground v.1.15,2013-06-07 16:50:00,
2013-06-07 12:55:00,69.1,65.7,29.66,SW,229,2.0,3.0,89,0.00,,,0.10,Wunderground v.1.15,2013-06-07 16:55:00,
2013-06-07 13:05:00,68.8,65.7,29.66,SW,222,3.0,3.0,90,0.00,,,0.10,Wunderground v.1.15,2013-06-07 17:05:00,
2013-06-07 13:15:00,68.9,65.8,29.66,WSW,245,1.0,2.0,90,0.00,,,0.10,Wunderground v.1.15,2013-06-07 17:15:00,
2013-06-07 13:20:00,69.1,66.0,29.66,WSW,256,1.0,1.0,90,0.00,,,0.10,Wunderground v.1.15,2013-06-07 17:20:00,
2013-06-07 13:30:00,69.6,65.9,29.66,WSW,237,2.0,2.0,88,0.00,,,0.10,Wunderground v.1.15,2013-06-07 17:30:00,
2013-06-07 13:35:00,69.9,66.2,29.66,WSW,238,2.0,2.0,88,0.00,,,0.10,Wunderground v.1.15,2013-06-07 17:35:00,
2013-06-07 13:40:00,70.3,66.6,29.66,WSW,242,2.0,2.0,88,0.00,,,0.10,Wunderground v.1.15,2013-06-07 17:40:00,
2013-06-07 13:50:00,70.4,66.3,29.66,West,261,1.0,3.0,87,0.00,,,0.10,Wunderground v.1.15,2013-06-07 17:50:00,
2013-06-07 14:05:00,70.4,65.7,29.66,West,273,2.0,2.0,85,0.00,,,0.10,Wunderground v.1.15,2013-06-07 18:05:00,
2013-06-07 14:10:00,70.3,65.2,29.66,WSW,245,2.0,6.0,84,0.00,,,0.10,Wunderground v.1.15,2013-06-07 18:10:00,
2013-06-07 14:20:00,70.1,64.7,29.66,WSW,252,2.0,3.0,83,0.00,,,0.10,Wunderground v.1.15,2013-06-07 18:20:00,
2013-06-07 14:30:00,71.1,65.3,29.66,NW,321,3.0,3.0,82,0.00,,,0.10,Wunderground v.1.15,2013-06-07 18:30:00,
2013-06-07 14:40:00,71.6,65.5,29.66,NW,307,2.0,2.0,81,0.00,,,0.10,Wunderground v.1.15,2013-06-07 18:40:00,
2013-06-07 14:50:00,70.9,64.8,29.67,WSW,248,3.0,3.0,81,0.00,,,0.10,Wunderground v.1.15,2013-06-07 18:50:00,
2013-06-07 15:05:00,70.3,64.2,29.67,WSW,249,2.0,3.0,81,0.00,,,0.10,Wunderground v.1.15,2013-06-07 19:05:00,
2013-06-07 15:10:00,70.3,64.2,29.67,WSW,244,2.0,2.0,81,0.00,,,0.10,Wunderground v.1.15,2013-06-07 19:10:00,
2013-06-07 15:20:00,70.3,64.2,29.67,WNW,283,1.0,1.0,81,0.00,,,0.10,Wunderground v.1.15,2013-06-07 19:20:00,
2013-06-07 15:30:00,70.4,64.6,29.67,WNW,290,2.0,2.0,82,0.00,,,0.10,Wunderground v.1.15,2013-06-07 19:30:00,
2013-06-07 15:40:00,70.9,64.1,29.67,WSW,242,1.0,1.0,79,0.00,,,0.10,Wunderground v.1.15,2013-06-07 19:40:00,
2013-06-07 15:50:00,70.8,64.7,29.67,WSW,250,1.0,5.0,81,0.00,,,0.10,Wunderground v.1.15,2013-06-07 19:50:00,
2013-06-07 16:00:00,70.9,65.1,29.67,WNW,300,2.0,3.0,82,0.00,,,0.10,Wunderground v.1.15,2013-06-07 20:00:00,
2013-06-07 16:10:00,71.1,65.3,29.67,WNW,284,3.0,3.0,82,0.00,,,0.10,Wunderground v.1.15,2013-06-07 20:10:00,
2013-06-07 16:15:00,71.6,64.4,29.67,SW,232,2.0,4.0,78,0.00,,,0.10,Wunderground v.1.15,2013-06-07 20:15:00,
2013-06-07 16:20:00,72.0,65.1,29.67,WNW,289,3.0,6.0,79,0.00,,,0.10,Wunderground v.1.15,2013-06-07 20:20:00,
2013-06-07 16:30:00,71.6,63.6,29.67,West,269,4.0,4.0,76,0.00,,,0.10,Wunderground v.1.15,2013-06-07 20:30:00,
2013-06-07 16:45:00,71.8,63.8,29.68,NW,318,4.0,12.0,76,0.00,,,0.10,Wunderground v.1.15,2013-06-07 20:45:00,
2013-06-07 17:00:00,70.6,63.0,29.69,WNW,298,4.0,4.0,77,0.00,,,0.10,Wunderground v.1.15,2013-06-07 21:00:00,
2013-06-07 17:10:00,70.4,62.5,29.69,NNW,337,2.0,2.0,76,0.00,,,0.10,Wunderground v.1.15,2013-06-07 21:10:00,
2013-06-07 17:15:00,70.6,62.7,29.69,WNW,292,1.0,3.0,76,0.00,,,0.10,Wunderground v.1.15,2013-06-07 21:15:00,
2013-06-07 17:20:00,71.3,63.0,29.69,West,268,1.0,3.0,75,0.00,,,0.10,Wunderground v.1.15,2013-06-07 21:20:00,
2013-06-07 17:30:00,71.6,63.3,29.69,WNW,290,2.0,2.0,75,0.00,,,0.10,Wunderground v.1.15,2013-06-07 21:30:00,
2013-06-07 17:45:00,71.8,63.8,29.69,NNW,344,1.0,4.0,76,0.00,,,0.10,Wunderground v.1.15,2013-06-07 21:45:00,
2013-06-07 17:50:00,71.6,62.9,29.69,West,275,1.0,2.0,74,0.00,,,0.10,Wunderground v.1.15,2013-06-07 21:50:00,
2013-06-07 18:00:00,71.3,61.8,29.70,NW,323,1.0,1.0,72,0.00,,,0.10,Wunderground v.1.15,2013-06-07 22:00:00,
2013-06-07 18:10:00,71.6,61.7,29.70,NW,321,0.0,0.0,71,0.00,,,0.10,Wunderground v.1.15,2013-06-07 22:10:00,
2013-06-07 18:25:00,70.8,60.9,29.71,NW,321,0.0,0.0,71,0.00,,,0.10,Wunderground v.1.15,2013-06-07 22:25:00,
2013-06-07 18:30:00,71.3,61.0,29.70,NW,322,0.0,0.0,70,0.00,,,0.10,Wunderground v.1.15,2013-06-07 22:30:00,
2013-06-07 18:40:00,72.1,60.5,29.71,NNW,340,1.0,1.0,67,0.00,,,0.10,Wunderground v.1.15,2013-06-07 22:40:00,
2013-06-07 18:50:00,72.1,59.7,29.71,NNW,334,0.0,1.0,65,0.00,,,0.10,Wunderground v.1.15,2013-06-07 22:50:00,
2013-06-07 19:10:00,72.1,59.7,29.72,WNW,286,0.0,0.0,65,0.00,,,0.10,Wunderground v.1.15,2013-06-07 23:10:00,
2013-06-07 19:20:00,72.0,59.6,29.72,WNW,300,1.0,1.0,65,0.00,,,0.10,Wunderground v.1.15,2013-06-07 23:20:00,
2013-06-07 19:30:00,71.6,59.6,29.73,NW,304,0.0,0.0,66,0.00,,,0.10,Wunderground v.1.15,2013-06-07 23:30:00,
2013-06-07 19:35:00,71.5,60.0,29.73,NW,304,0.0,0.0,67,0.00,,,0.10,Wunderground v.1.15,2013-06-07 23:35:00,
2013-06-07 19:45:00,70.9,59.8,29.74,NW,304,0.0,3.0,68,0.00,,,0.10,Wunderground v.1.15,2013-06-07 23:45:00,
2013-06-07 19:55:00,69.9,58.9,29.74,WNW,300,1.0,2.0,68,0.00,,,0.10,Wunderground v.1.15,2013-06-07 23:55:00,
2013-06-07 20:15:00,68.3,58.9,29.74,WNW,301,0.0,0.0,72,0.00,,,0.10,Wunderground v.1.15,2013-06-08 00:15:00,
2013-06-07 20:25:00,67.4,58.8,29.75,WNW,301,0.0,0.0,74,0.00,,,0.10,Wunderground v.1.15,2013-06-08 00:25:00,
2013-06-07 20:35:00,66.6,58.4,29.76,WNW,301,0.0,0.0,75,0.00,,,0.10,Wunderground v.1.15,2013-06-08 00:35:00,
2013-06-07 20:40:00,66.3,58.5,29.76,WNW,301,0.0,0.0,76,0.00,,,0.10,Wunderground v.1.15,2013-06-08 00:40:00,
2013-06-07 20:45:00,66.0,58.2,29.76,WNW,301,0.0,1.0,76,0.00,,,0.10,Wunderground v.1.15,2013-06-08 00:45:00,
2013-06-07 20:55:00,65.3,57.9,29.76,WNW,301,0.0,0.0,77,0.00,,,0.10,Wunderground v.1.15,2013-06-08 00:55:00,
2013-06-07 21:00:00,65.2,58.2,29.77,WNW,301,0.0,0.0,78,0.00,,,0.10,Wunderground v.1.15,2013-06-08 01:00:00,
2013-06-07 21:10:00,64.7,58.4,29.77,WNW,301,0.0,0.0,80,0.00,,,0.10,Wunderground v.1.15,2013-06-08 01:10:00,
2013-06-07 21:15:00,64.5,58.2,29.77,WNW,301,0.0,0.0,80,0.00,,,0.10,Wunderground v.1.15,2013-06-08 01:15:00,
2013-06-07 21:25:00,64.0,58.1,29.77,WNW,301,0.0,0.0,81,0.00,,,0.10,Wunderground v.1.15,2013-06-08 01:25:00,
2013-06-07 21:31:00,63.9,58.0,29.78,WNW,301,0.0,0.0,81,0.00,,,0.10,Wunderground v.1.15,2013-06-08 01:31:00,
2013-06-07 21:45:00,63.4,57.8,29.78,WNW,301,0.0,0.0,82,0.00,,,0.10,Wunderground v.1.15,2013-06-08 01:45:00,
2013-06-07 21:50:00,63.2,57.6,29.78,WNW,301,0.0,0.0,82,0.00,,,0.10,Wunderground v.1.15,2013-06-08 01:50:00,
2013-06-07 21:55:00,63.1,57.9,29.79,WNW,301,0.0,0.0,83,0.00,,,0.10,Wunderground v.1.15,2013-06-08 01:55:00,
2013-06-07 22:05:00,62.9,58.0,29.79,WNW,301,0.0,0.0,84,0.00,,,0.10,Wunderground v.1.15,2013-06-08 02:05:00,
2013-06-07 22:10:00,62.6,58.0,29.79,WNW,301,0.0,0.0,85,0.00,,,0.10,Wunderground v.1.15,2013-06-08 02:10:00,
2013-06-07 22:20:00,62.3,57.7,29.80,WNW,301,0.0,0.0,85,0.00,,,0.10,Wunderground v.1.15,2013-06-08 02:20:00,
2013-06-07 22:35:00,61.8,57.9,29.80,WNW,301,0.0,0.0,87,0.00,,,0.10,Wunderground v.1.15,2013-06-08 02:35:00,
2013-06-07 22:40:00,61.8,57.6,29.81,WNW,301,0.0,0.0,86,0.00,,,0.10,Wunderground v.1.15,2013-06-08 02:40:00,
2013-06-07 22:50:00,61.8,58.2,29.81,WNW,301,0.0,0.0,88,0.00,,,0.10,Wunderground v.1.15,2013-06-08 02:50:00,
2013-06-07 23:00:00,61.6,58.0,29.81,WNW,301,0.0,0.0,88,0.00,,,0.10,Wunderground v.1.15,2013-06-08 03:00:00,
2013-06-07 23:06:00,61.8,57.9,29.81,WNW,301,0.0,0.0,87,0.00,,,0.10,Wunderground v.1.15,2013-06-08 03:06:00,
2013-06-07 23:20:00,61.8,58.8,29.82,WNW,301,0.0,0.0,90,0.00,,,0.10,Wunderground v.1.15,2013-06-08 03:20:00,
2013-06-07 23:25:00,61.8,58.8,29.82,WNW,301,0.0,0.0,90,0.00,,,0.10,Wunderground v.1.15,2013-06-08 03:25:00,
2013-06-07 23:30:00,61.6,58.6,29.82,WNW,301,0.0,0.0,90,0.00,,,0.10,Wunderground v.1.15,2013-06-08 03:30:00,
2013-06-07 23:45:00,61.5,58.5,29.82,WNW,301,0.0,0.0,90,0.00,,,0.10,Wunderground v.1.15,2013-06-08 03:45:00,
2013-06-07 23:50:00,61.5,58.5,29.82,WNW,301,0.0,0.0,90,0.00,,,0.10,Wunderground v.1.15,2013-06-08 03:50:00,
2013-06-07 23:55:00,61.3,58.3,29.82,WNW,301,0.0,0.0,90,0.00,,,0.10,Wunderground v.1.15,2013-06-08 03:55:00,